sensor_id;sensor_type;location;lat;lon;timestamp;temperature;humidity
80367;DHT22;70058;42.660;23.366;2023-08-12T00:00:30;19.60;52.70
80367;DHT22;70058;42.660;23.366;2023-08-12T00:02:55;19.60;52.60
80367;DHT22;70058;42.660;23.366;2023-08-12T00:05:21;19.60;52.20
80367;DHT22;70058;42.660;23.366;2023-08-12T00:07:48;19.60;52.00
80367;DHT22;70058;42.660;23.366;2023-08-12T00:10:14;19.60;52.60
80367;DHT22;70058;42.660;23.366;2023-08-12T00:12:40;19.60;52.60
80367;DHT22;70058;42.660;23.366;2023-08-12T00:15:07;19.60;52.10
80367;DHT22;70058;42.660;23.366;2023-08-12T00:17:34;19.50;53.40
80367;DHT22;70058;42.660;23.366;2023-08-12T00:20:00;19.50;52.50
80367;DHT22;70058;42.660;23.366;2023-08-12T00:22:26;19.50;52.90
80367;DHT22;70058;42.660;23.366;2023-08-12T00:24:52;19.50;52.90
80367;DHT22;70058;42.660;23.366;2023-08-12T00:27:18;19.40;52.60
80367;DHT22;70058;42.660;23.366;2023-08-12T00:29:44;19.50;52.60
80367;DHT22;70058;42.660;23.366;2023-08-12T00:32:09;19.50;52.10
80367;DHT22;70058;42.660;23.366;2023-08-12T00:34:35;19.40;52.30
80367;DHT22;70058;42.660;23.366;2023-08-12T00:37:01;19.40;52.20
80367;DHT22;70058;42.660;23.366;2023-08-12T00:39:27;19.40;52.10
80367;DHT22;70058;42.660;23.366;2023-08-12T00:41:53;19.30;52.00
80367;DHT22;70058;42.660;23.366;2023-08-12T00:44:19;19.30;52.50
80367;DHT22;70058;42.660;23.366;2023-08-12T00:46:44;19.20;52.50
80367;DHT22;70058;42.660;23.366;2023-08-12T00:49:10;19.30;52.50
80367;DHT22;70058;42.660;23.366;2023-08-12T00:51:41;19.30;52.30
80367;DHT22;70058;42.660;23.366;2023-08-12T00:54:08;19.30;52.40
80367;DHT22;70058;42.660;23.366;2023-08-12T00:56:38;19.30;51.90
80367;DHT22;70058;42.660;23.366;2023-08-12T00:59:05;19.20;52.10
80367;DHT22;70058;42.660;23.366;2023-08-12T01:01:32;19.20;51.90
80367;DHT22;70058;42.660;23.366;2023-08-12T01:03:59;19.10;52.20
80367;DHT22;70058;42.660;23.366;2023-08-12T01:06:25;19.10;51.80
80367;DHT22;70058;42.660;23.366;2023-08-12T01:08:51;19.20;51.80
80367;DHT22;70058;42.660;23.366;2023-08-12T01:11:24;19.10;52.00
80367;DHT22;70058;42.660;23.366;2023-08-12T01:14:14;19.10;52.00
80367;DHT22;70058;42.660;23.366;2023-08-12T01:16:47;19.10;52.00
80367;DHT22;70058;42.660;23.366;2023-08-12T01:19:33;19.10;51.90
80367;DHT22;70058;42.660;23.366;2023-08-12T01:22:01;19.10;52.10
80367;DHT22;70058;42.660;23.366;2023-08-12T01:24:27;19.10;52.10
80367;DHT22;70058;42.660;23.366;2023-08-12T01:26:58;19.00;52.30
80367;DHT22;70058;42.660;23.366;2023-08-12T01:29:25;19.00;52.40
80367;DHT22;70058;42.660;23.366;2023-08-12T01:35:03;19.00;52.30
80367;DHT22;70058;42.660;23.366;2023-08-12T01:37:32;19.00;52.70
80367;DHT22;70058;42.660;23.366;2023-08-12T01:40:00;18.90;52.80
80367;DHT22;70058;42.660;23.366;2023-08-12T01:42:30;18.90;52.90
80367;DHT22;70058;42.660;23.366;2023-08-12T01:44:57;18.80;53.20
80367;DHT22;70058;42.660;23.366;2023-08-12T01:47:23;18.70;53.00
80367;DHT22;70058;42.660;23.366;2023-08-12T01:49:49;18.70;53.20
80367;DHT22;70058;42.660;23.366;2023-08-12T01:52:14;18.70;53.30
80367;DHT22;70058;42.660;23.366;2023-08-12T01:54:41;18.70;53.00
80367;DHT22;70058;42.660;23.366;2023-08-12T01:57:06;18.60;53.20
80367;DHT22;70058;42.660;23.366;2023-08-12T01:59:36;18.60;53.20
80367;DHT22;70058;42.660;23.366;2023-08-12T02:02:02;18.60;53.10
80367;DHT22;70058;42.660;23.366;2023-08-12T02:04:28;18.60;53.20
80367;DHT22;70058;42.660;23.366;2023-08-12T02:06:54;18.50;53.20
80367;DHT22;70058;42.660;23.366;2023-08-12T02:09:20;18.50;54.00
80367;DHT22;70058;42.660;23.366;2023-08-12T02:11:46;18.50;53.80
80367;DHT22;70058;42.660;23.366;2023-08-12T02:14:12;18.50;53.50
80367;DHT22;70058;42.660;23.366;2023-08-12T02:16:37;18.50;53.30
80367;DHT22;70058;42.660;23.366;2023-08-12T02:19:03;18.50;53.60
80367;DHT22;70058;42.660;23.366;2023-08-12T02:21:29;18.50;53.50
80367;DHT22;70058;42.660;23.366;2023-08-12T02:23:55;18.50;53.10
80367;DHT22;70058;42.660;23.366;2023-08-12T02:26:20;18.40;53.40
80367;DHT22;70058;42.660;23.366;2023-08-12T02:28:46;18.40;53.30
80367;DHT22;70058;42.660;23.366;2023-08-12T02:31:12;18.50;53.30
80367;DHT22;70058;42.660;23.366;2023-08-12T02:33:38;18.40;53.50
80367;DHT22;70058;42.660;23.366;2023-08-12T02:36:03;18.40;53.50
80367;DHT22;70058;42.660;23.366;2023-08-12T02:38:29;18.40;53.50
80367;DHT22;70058;42.660;23.366;2023-08-12T02:40:55;18.30;53.50
80367;DHT22;70058;42.660;23.366;2023-08-12T02:43:20;18.30;53.80
80367;DHT22;70058;42.660;23.366;2023-08-12T02:45:46;18.30;53.70
80367;DHT22;70058;42.660;23.366;2023-08-12T02:48:12;18.20;53.70
80367;DHT22;70058;42.660;23.366;2023-08-12T02:50:39;18.30;53.50
80367;DHT22;70058;42.660;23.366;2023-08-12T02:53:05;18.30;52.90
80367;DHT22;70058;42.660;23.366;2023-08-12T02:55:31;18.30;53.50
80367;DHT22;70058;42.660;23.366;2023-08-12T02:58:01;18.30;53.40
80367;DHT22;70058;42.660;23.366;2023-08-12T03:00:27;18.20;53.80
80367;DHT22;70058;42.660;23.366;2023-08-12T03:02:53;18.20;53.60
80367;DHT22;70058;42.660;23.366;2023-08-12T03:05:19;18.20;53.70
80367;DHT22;70058;42.660;23.366;2023-08-12T03:07:45;18.20;53.60
80367;DHT22;70058;42.660;23.366;2023-08-12T03:10:11;18.20;53.70
80367;DHT22;70058;42.660;23.366;2023-08-12T03:12:37;18.20;53.80
80367;DHT22;70058;42.660;23.366;2023-08-12T03:15:03;18.10;54.00
80367;DHT22;70058;42.660;23.366;2023-08-12T03:17:29;18.10;54.00
80367;DHT22;70058;42.660;23.366;2023-08-12T03:19:57;18.10;53.80
80367;DHT22;70058;42.660;23.366;2023-08-12T03:22:25;18.10;53.80
80367;DHT22;70058;42.660;23.366;2023-08-12T03:24:50;18.20;53.80
80367;DHT22;70058;42.660;23.366;2023-08-12T03:27:16;18.10;53.50
80367;DHT22;70058;42.660;23.366;2023-08-12T03:29:42;18.10;53.60
80367;DHT22;70058;42.660;23.366;2023-08-12T03:32:07;18.10;53.60
80367;DHT22;70058;42.660;23.366;2023-08-12T03:34:33;18.10;53.80
80367;DHT22;70058;42.660;23.366;2023-08-12T03:36:58;18.10;53.80
80367;DHT22;70058;42.660;23.366;2023-08-12T03:39:24;18.10;53.80
80367;DHT22;70058;42.660;23.366;2023-08-12T03:41:50;18.10;54.00
80367;DHT22;70058;42.660;23.366;2023-08-12T03:44:16;18.10;54.00
80367;DHT22;70058;42.660;23.366;2023-08-12T03:46:42;18.10;54.00
80367;DHT22;70058;42.660;23.366;2023-08-12T03:49:08;18.10;53.80
80367;DHT22;70058;42.660;23.366;2023-08-12T03:51:33;18.20;53.90
80367;DHT22;70058;42.660;23.366;2023-08-12T03:53:59;18.20;53.50
80367;DHT22;70058;42.660;23.366;2023-08-12T03:56:25;18.20;53.50
80367;DHT22;70058;42.660;23.366;2023-08-12T03:58:51;18.20;53.50
80367;DHT22;70058;42.660;23.366;2023-08-12T04:01:17;18.30;53.60
80367;DHT22;70058;42.660;23.366;2023-08-12T04:03:42;18.40;53.60
80367;DHT22;70058;42.660;23.366;2023-08-12T04:06:08;18.40;53.90
80367;DHT22;70058;42.660;23.366;2023-08-12T04:08:34;18.50;53.60
80367;DHT22;70058;42.660;23.366;2023-08-12T04:11:00;18.50;53.20
80367;DHT22;70058;42.660;23.366;2023-08-12T04:13:26;18.50;53.20
80367;DHT22;70058;42.660;23.366;2023-08-12T04:15:51;18.50;53.40
80367;DHT22;70058;42.660;23.366;2023-08-12T04:18:19;18.50;53.60
80367;DHT22;70058;42.660;23.366;2023-08-12T04:20:49;18.60;54.00
80367;DHT22;70058;42.660;23.366;2023-08-12T04:23:15;18.70;52.90
80367;DHT22;70058;42.660;23.366;2023-08-12T04:25:45;18.80;53.20
80367;DHT22;70058;42.660;23.366;2023-08-12T04:28:12;18.90;52.40
80367;DHT22;70058;42.660;23.366;2023-08-12T04:30:46;19.00;52.10
80367;DHT22;70058;42.660;23.366;2023-08-12T04:33:15;19.20;51.50
80367;DHT22;70058;42.660;23.366;2023-08-12T04:35:41;19.30;51.20
80367;DHT22;70058;42.660;23.366;2023-08-12T04:38:07;19.30;50.80
80367;DHT22;70058;42.660;23.366;2023-08-12T04:40:33;19.40;50.90
80367;DHT22;70058;42.660;23.366;2023-08-12T04:42:59;19.60;50.20
80367;DHT22;70058;42.660;23.366;2023-08-12T04:45:25;19.60;50.10
80367;DHT22;70058;42.660;23.366;2023-08-12T04:47:51;19.70;50.30
80367;DHT22;70058;42.660;23.366;2023-08-12T04:50:17;19.80;49.80
80367;DHT22;70058;42.660;23.366;2023-08-12T04:52:42;19.90;49.80
80367;DHT22;70058;42.660;23.366;2023-08-12T04:55:08;20.00;48.90
80367;DHT22;70058;42.660;23.366;2023-08-12T04:57:36;20.10;48.60
80367;DHT22;70058;42.660;23.366;2023-08-12T05:00:02;20.10;48.60
80367;DHT22;70058;42.660;23.366;2023-08-12T05:02:28;20.00;48.50
80367;DHT22;70058;42.660;23.366;2023-08-12T05:04:53;20.00;48.70
80367;DHT22;70058;42.660;23.366;2023-08-12T05:07:19;19.90;49.10
80367;DHT22;70058;42.660;23.366;2023-08-12T05:09:45;20.00;49.20
80367;DHT22;70058;42.660;23.366;2023-08-12T05:12:11;20.20;49.00
80367;DHT22;70058;42.660;23.366;2023-08-12T05:14:38;20.30;49.10
80367;DHT22;70058;42.660;23.366;2023-08-12T05:17:05;20.40;48.70
80367;DHT22;70058;42.660;23.366;2023-08-12T05:19:31;20.50;48.70
80367;DHT22;70058;42.660;23.366;2023-08-12T05:21:57;20.60;48.00
80367;DHT22;70058;42.660;23.366;2023-08-12T05:24:23;20.90;47.30
80367;DHT22;70058;42.660;23.366;2023-08-12T05:26:49;21.00;46.70
80367;DHT22;70058;42.660;23.366;2023-08-12T05:29:15;21.00;46.50
80367;DHT22;70058;42.660;23.366;2023-08-12T05:31:41;21.10;46.50
80367;DHT22;70058;42.660;23.366;2023-08-12T05:34:06;20.90;46.60
80367;DHT22;70058;42.660;23.366;2023-08-12T05:36:32;20.90;47.00
80367;DHT22;70058;42.660;23.366;2023-08-12T05:38:58;20.90;47.00
80367;DHT22;70058;42.660;23.366;2023-08-12T05:41:24;21.00;46.60
80367;DHT22;70058;42.660;23.366;2023-08-12T05:43:49;21.10;46.80
80367;DHT22;70058;42.660;23.366;2023-08-12T05:46:15;21.00;47.10
80367;DHT22;70058;42.660;23.366;2023-08-12T05:48:41;21.00;47.40
80367;DHT22;70058;42.660;23.366;2023-08-12T05:51:07;21.10;47.40
80367;DHT22;70058;42.660;23.366;2023-08-12T05:53:32;21.10;47.70
80367;DHT22;70058;42.660;23.366;2023-08-12T05:55:58;21.20;47.00
80367;DHT22;70058;42.660;23.366;2023-08-12T05:58:24;21.30;46.90
80367;DHT22;70058;42.660;23.366;2023-08-12T06:00:50;21.30;46.60
80367;DHT22;70058;42.660;23.366;2023-08-12T06:03:16;21.40;46.40
80367;DHT22;70058;42.660;23.366;2023-08-12T06:05:46;21.60;46.00
80367;DHT22;70058;42.660;23.366;2023-08-12T06:08:13;21.90;44.90
80367;DHT22;70058;42.660;23.366;2023-08-12T06:10:38;22.20;44.80
80367;DHT22;70058;42.660;23.366;2023-08-12T06:13:04;22.30;45.00
80367;DHT22;70058;42.660;23.366;2023-08-12T06:15:30;22.40;43.90
80367;DHT22;70058;42.660;23.366;2023-08-12T06:17:56;22.60;43.90
80367;DHT22;70058;42.660;23.366;2023-08-12T06:20:22;22.90;43.40
80367;DHT22;70058;42.660;23.366;2023-08-12T06:22:48;23.30;42.30
80367;DHT22;70058;42.660;23.366;2023-08-12T06:25:13;25.50;39.30
80367;DHT22;70058;42.660;23.366;2023-08-12T06:27:39;28.50;33.80
80367;DHT22;70058;42.660;23.366;2023-08-12T06:30:05;31.50;29.50
80367;DHT22;70058;42.660;23.366;2023-08-12T06:32:33;34.00;27.40
80367;DHT22;70058;42.660;23.366;2023-08-12T06:34:59;36.10;25.40
80367;DHT22;70058;42.660;23.366;2023-08-12T06:37:24;37.60;23.40
80367;DHT22;70058;42.660;23.366;2023-08-12T06:39:50;38.80;22.70
80367;DHT22;70058;42.660;23.366;2023-08-12T06:42:16;39.70;21.20
80367;DHT22;70058;42.660;23.366;2023-08-12T06:44:42;40.60;21.00
80367;DHT22;70058;42.660;23.366;2023-08-12T06:47:07;41.50;19.80
80367;DHT22;70058;42.660;23.366;2023-08-12T06:49:33;41.60;19.60
80367;DHT22;70058;42.660;23.366;2023-08-12T06:51:58;41.70;19.30
80367;DHT22;70058;42.660;23.366;2023-08-12T06:54:24;42.30;19.20
80367;DHT22;70058;42.660;23.366;2023-08-12T06:56:50;43.10;18.70
80367;DHT22;70058;42.660;23.366;2023-08-12T06:59:16;43.50;18.50
80367;DHT22;70058;42.660;23.366;2023-08-12T07:01:42;44.30;17.70
80367;DHT22;70058;42.660;23.366;2023-08-12T07:04:08;44.80;17.30
80367;DHT22;70058;42.660;23.366;2023-08-12T07:06:33;45.40;17.10
80367;DHT22;70058;42.660;23.366;2023-08-12T07:08:59;45.60;16.80
80367;DHT22;70058;42.660;23.366;2023-08-12T07:11:25;45.80;16.90
80367;DHT22;70058;42.660;23.366;2023-08-12T07:13:50;46.20;16.40
80367;DHT22;70058;42.660;23.366;2023-08-12T07:16:16;46.40;16.20
80367;DHT22;70058;42.660;23.366;2023-08-12T07:18:41;46.30;16.10
80367;DHT22;70058;42.660;23.366;2023-08-12T07:21:07;46.30;16.10
80367;DHT22;70058;42.660;23.366;2023-08-12T07:23:33;46.40;16.00
80367;DHT22;70058;42.660;23.366;2023-08-12T07:25:58;45.90;16.40
80367;DHT22;70058;42.660;23.366;2023-08-12T07:28:24;46.10;16.20
80367;DHT22;70058;42.660;23.366;2023-08-12T07:30:50;46.90;15.50
80367;DHT22;70058;42.660;23.366;2023-08-12T07:33:17;47.60;15.30
80367;DHT22;70058;42.660;23.366;2023-08-12T07:35:43;48.20;15.00
80367;DHT22;70058;42.660;23.366;2023-08-12T07:38:09;48.50;15.00
80367;DHT22;70058;42.660;23.366;2023-08-12T07:40:34;48.40;14.90
80367;DHT22;70058;42.660;23.366;2023-08-12T07:43:00;48.70;14.70
80367;DHT22;70058;42.660;23.366;2023-08-12T07:45:26;49.30;14.60
80367;DHT22;70058;42.660;23.366;2023-08-12T07:47:51;49.80;14.20
80367;DHT22;70058;42.660;23.366;2023-08-12T07:50:17;50.30;13.90
80367;DHT22;70058;42.660;23.366;2023-08-12T07:52:43;50.50;13.50
80367;DHT22;70058;42.660;23.366;2023-08-12T07:55:09;50.10;13.70
80367;DHT22;70058;42.660;23.366;2023-08-12T07:57:35;49.10;13.60
80367;DHT22;70058;42.660;23.366;2023-08-12T08:00:01;49.40;13.90
80367;DHT22;70058;42.660;23.366;2023-08-12T08:02:26;50.00;13.80
80367;DHT22;70058;42.660;23.366;2023-08-12T08:04:52;50.50;13.50
80367;DHT22;70058;42.660;23.366;2023-08-12T08:07:18;51.00;13.30
80367;DHT22;70058;42.660;23.366;2023-08-12T08:09:43;51.30;13.10
80367;DHT22;70058;42.660;23.366;2023-08-12T08:12:10;51.70;12.90
80367;DHT22;70058;42.660;23.366;2023-08-12T08:14:36;51.60;12.70
80367;DHT22;70058;42.660;23.366;2023-08-12T08:17:02;51.90;12.70
80367;DHT22;70058;42.660;23.366;2023-08-12T08:19:29;52.10;12.40
80367;DHT22;70058;42.660;23.366;2023-08-12T08:21:55;52.00;12.30
80367;DHT22;70058;42.660;23.366;2023-08-12T08:24:20;51.90;12.50
80367;DHT22;70058;42.660;23.366;2023-08-12T08:26:46;51.60;12.40
80367;DHT22;70058;42.660;23.366;2023-08-12T08:29:12;51.60;12.30
80367;DHT22;70058;42.660;23.366;2023-08-12T08:31:39;51.70;12.30
80367;DHT22;70058;42.660;23.366;2023-08-12T08:34:04;52.40;12.50
80367;DHT22;70058;42.660;23.366;2023-08-12T08:36:30;53.10;12.10
80367;DHT22;70058;42.660;23.366;2023-08-12T08:38:56;53.70;11.70
80367;DHT22;70058;42.660;23.366;2023-08-12T08:41:22;54.10;11.70
80367;DHT22;70058;42.660;23.366;2023-08-12T08:43:50;54.40;11.80
80367;DHT22;70058;42.660;23.366;2023-08-12T08:46:18;54.10;11.50
80367;DHT22;70058;42.660;23.366;2023-08-12T08:48:44;54.40;11.40
80367;DHT22;70058;42.660;23.366;2023-08-12T08:51:11;54.60;11.50
80367;DHT22;70058;42.660;23.366;2023-08-12T08:53:38;54.40;11.10
80367;DHT22;70058;42.660;23.366;2023-08-12T08:56:08;54.00;11.10
80367;DHT22;70058;42.660;23.366;2023-08-12T08:58:40;53.90;11.10
80367;DHT22;70058;42.660;23.366;2023-08-12T09:01:06;54.30;11.20
80367;DHT22;70058;42.660;23.366;2023-08-12T09:03:35;54.30;11.10
80367;DHT22;70058;42.660;23.366;2023-08-12T09:06:02;53.80;11.30
80367;DHT22;70058;42.660;23.366;2023-08-12T09:08:29;53.70;11.30
80367;DHT22;70058;42.660;23.366;2023-08-12T09:11:00;53.70;11.20
80367;DHT22;70058;42.660;23.366;2023-08-12T09:13:27;53.70;11.40
80367;DHT22;70058;42.660;23.366;2023-08-12T09:15:54;53.90;11.50
80367;DHT22;70058;42.660;23.366;2023-08-12T09:18:20;54.30;11.20
80367;DHT22;70058;42.660;23.366;2023-08-12T09:20:50;54.70;11.10
80367;DHT22;70058;42.660;23.366;2023-08-12T09:23:16;55.20;10.90
80367;DHT22;70058;42.660;23.366;2023-08-12T09:25:43;55.30;10.60
80367;DHT22;70058;42.660;23.366;2023-08-12T09:28:10;55.10;10.60
80367;DHT22;70058;42.660;23.366;2023-08-12T09:30:37;55.00;10.40
80367;DHT22;70058;42.660;23.366;2023-08-12T09:33:05;54.90;10.50
80367;DHT22;70058;42.660;23.366;2023-08-12T09:35:42;54.90;10.20
80367;DHT22;70058;42.660;23.366;2023-08-12T09:38:13;54.70;10.40
80367;DHT22;70058;42.660;23.366;2023-08-12T09:40:39;55.10;10.30
80367;DHT22;70058;42.660;23.366;2023-08-12T09:43:05;55.10;10.50
80367;DHT22;70058;42.660;23.366;2023-08-12T09:45:32;55.40;10.40
80367;DHT22;70058;42.660;23.366;2023-08-12T09:47:58;55.80;10.20
80367;DHT22;70058;42.660;23.366;2023-08-12T09:50:28;56.30;10.00
80367;DHT22;70058;42.660;23.366;2023-08-12T09:52:55;55.10;9.80
80367;DHT22;70058;42.660;23.366;2023-08-12T09:55:23;55.20;10.50
80367;DHT22;70058;42.660;23.366;2023-08-12T09:57:51;55.80;10.00
80367;DHT22;70058;42.660;23.366;2023-08-12T10:00:21;55.10;10.30
80367;DHT22;70058;42.660;23.366;2023-08-12T10:02:48;53.90;10.20
80367;DHT22;70058;42.660;23.366;2023-08-12T10:07:43;54.90;10.20
80367;DHT22;70058;42.660;23.366;2023-08-12T10:10:11;55.20;10.10
80367;DHT22;70058;42.660;23.366;2023-08-12T10:12:38;53.90;10.00
80367;DHT22;70058;42.660;23.366;2023-08-12T10:15:05;53.60;10.50
80367;DHT22;70058;42.660;23.366;2023-08-12T10:17:33;53.80;10.70
80367;DHT22;70058;42.660;23.366;2023-08-12T10:20:01;53.40;11.00
80367;DHT22;70058;42.660;23.366;2023-08-12T10:22:30;51.90;11.00
80367;DHT22;70058;42.660;23.366;2023-08-12T10:24:59;47.50;12.80
80367;DHT22;70058;42.660;23.366;2023-08-12T10:27:26;48.00;13.00
80367;DHT22;70058;42.660;23.366;2023-08-12T10:29:52;48.40;12.80
80367;DHT22;70058;42.660;23.366;2023-08-12T10:32:18;48.30;12.90
80367;DHT22;70058;42.660;23.366;2023-08-12T10:34:44;48.00;13.40
80367;DHT22;70058;42.660;23.366;2023-08-12T10:37:10;47.30;13.90
80367;DHT22;70058;42.660;23.366;2023-08-12T10:39:37;46.30;14.50
80367;DHT22;70058;42.660;23.366;2023-08-12T10:42:04;44.80;14.80
80367;DHT22;70058;42.660;23.366;2023-08-12T10:47:09;40.30;17.10
80367;DHT22;70058;42.660;23.366;2023-08-12T10:49:42;36.30;19.20
80367;DHT22;70058;42.660;23.366;2023-08-12T10:52:29;34.60;21.70
80367;DHT22;70058;42.660;23.366;2023-08-12T10:54:55;34.10;21.30
80367;DHT22;70058;42.660;23.366;2023-08-12T10:57:40;31.50;23.20
80367;DHT22;70058;42.660;23.366;2023-08-12T11:00:11;31.00;24.00
80367;DHT22;70058;42.660;23.366;2023-08-12T11:02:38;30.40;24.40
80367;DHT22;70058;42.660;23.366;2023-08-12T11:05:10;29.30;25.60
80367;DHT22;70058;42.660;23.366;2023-08-12T11:07:46;29.90;25.60
80367;DHT22;70058;42.660;23.366;2023-08-12T11:10:17;30.10;25.30
80367;DHT22;70058;42.660;23.366;2023-08-12T11:13:02;29.80;25.60
80367;DHT22;70058;42.660;23.366;2023-08-12T11:15:39;30.20;25.90
80367;DHT22;70058;42.660;23.366;2023-08-12T11:18:09;29.50;24.20
80367;DHT22;70058;42.660;23.366;2023-08-12T11:20:37;28.80;24.30
80367;DHT22;70058;42.660;23.366;2023-08-12T11:23:04;29.30;23.50
80367;DHT22;70058;42.660;23.366;2023-08-12T11:25:31;29.70;22.90
80367;DHT22;70058;42.660;23.366;2023-08-12T11:27:58;29.80;22.80
80367;DHT22;70058;42.660;23.366;2023-08-12T11:30:24;28.90;23.40
80367;DHT22;70058;42.660;23.366;2023-08-12T11:32:53;28.30;24.20
80367;DHT22;70058;42.660;23.366;2023-08-12T11:35:20;28.90;24.60
80367;DHT22;70058;42.660;23.366;2023-08-12T11:37:48;29.40;24.20
80367;DHT22;70058;42.660;23.366;2023-08-12T11:40:16;29.60;24.10
80367;DHT22;70058;42.660;23.366;2023-08-12T11:42:44;29.80;23.40
80367;DHT22;70058;42.660;23.366;2023-08-12T11:45:10;30.20;23.60
80367;DHT22;70058;42.660;23.366;2023-08-12T11:47:38;29.60;23.70
80367;DHT22;70058;42.660;23.366;2023-08-12T11:50:06;28.70;24.00
80367;DHT22;70058;42.660;23.366;2023-08-12T11:52:32;29.00;24.60
80367;DHT22;70058;42.660;23.366;2023-08-12T11:54:59;29.60;24.70
80367;DHT22;70058;42.660;23.366;2023-08-12T11:57:26;29.80;24.30
80367;DHT22;70058;42.660;23.366;2023-08-12T11:59:57;30.50;24.20
80367;DHT22;70058;42.660;23.366;2023-08-12T12:02:23;31.00;23.40
80367;DHT22;70058;42.660;23.366;2023-08-12T12:04:53;31.60;23.10
80367;DHT22;70058;42.660;23.366;2023-08-12T12:07:20;31.60;23.30
80367;DHT22;70058;42.660;23.366;2023-08-12T12:09:46;31.80;23.20
80367;DHT22;70058;42.660;23.366;2023-08-12T12:12:13;32.10;22.70
80367;DHT22;70058;42.660;23.366;2023-08-12T12:14:39;31.70;23.20
80367;DHT22;70058;42.660;23.366;2023-08-12T12:17:08;31.70;23.20
80367;DHT22;70058;42.660;23.366;2023-08-12T12:19:36;31.50;23.30
80367;DHT22;70058;42.660;23.366;2023-08-12T12:22:03;31.50;23.30
80367;DHT22;70058;42.660;23.366;2023-08-12T12:24:30;31.40;23.30
80367;DHT22;70058;42.660;23.366;2023-08-12T12:26:56;31.30;23.20
80367;DHT22;70058;42.660;23.366;2023-08-12T12:29:22;31.10;23.10
80367;DHT22;70058;42.660;23.366;2023-08-12T12:31:48;30.70;23.70
80367;DHT22;70058;42.660;23.366;2023-08-12T12:34:14;31.10;23.90
80367;DHT22;70058;42.660;23.366;2023-08-12T12:36:40;31.30;23.80
80367;DHT22;70058;42.660;23.366;2023-08-12T12:39:06;31.10;23.60
80367;DHT22;70058;42.660;23.366;2023-08-12T12:41:32;31.20;24.10
80367;DHT22;70058;42.660;23.366;2023-08-12T12:44:01;31.50;23.90
80367;DHT22;70058;42.660;23.366;2023-08-12T12:46:28;31.40;23.50
80367;DHT22;70058;42.660;23.366;2023-08-12T12:48:54;31.20;23.40
80367;DHT22;70058;42.660;23.366;2023-08-12T12:51:20;31.40;23.80
80367;DHT22;70058;42.660;23.366;2023-08-12T12:53:45;31.50;23.60
80367;DHT22;70058;42.660;23.366;2023-08-12T12:56:11;31.20;23.60
80367;DHT22;70058;42.660;23.366;2023-08-12T12:58:37;31.10;23.60
80367;DHT22;70058;42.660;23.366;2023-08-12T13:01:04;30.80;23.70
80367;DHT22;70058;42.660;23.366;2023-08-12T13:03:33;30.30;25.00
80367;DHT22;70058;42.660;23.366;2023-08-12T13:05:59;30.30;25.60
80367;DHT22;70058;42.660;23.366;2023-08-12T13:08:25;30.30;25.20
80367;DHT22;70058;42.660;23.366;2023-08-12T13:10:51;30.00;25.60
80367;DHT22;70058;42.660;23.366;2023-08-12T13:13:18;29.60;25.40
80367;DHT22;70058;42.660;23.366;2023-08-12T13:15:45;29.70;25.40
80367;DHT22;70058;42.660;23.366;2023-08-12T13:18:11;29.90;25.50
80367;DHT22;70058;42.660;23.366;2023-08-12T13:20:37;29.70;25.80
80367;DHT22;70058;42.660;23.366;2023-08-12T13:23:04;29.90;25.30
80367;DHT22;70058;42.660;23.366;2023-08-12T13:25:32;29.70;24.30
80367;DHT22;70058;42.660;23.366;2023-08-12T13:27:59;29.80;24.90
80367;DHT22;70058;42.660;23.366;2023-08-12T13:30:25;30.00;24.30
80367;DHT22;70058;42.660;23.366;2023-08-12T13:32:50;30.30;24.30
80367;DHT22;70058;42.660;23.366;2023-08-12T13:35:17;30.40;24.60
80367;DHT22;70058;42.660;23.366;2023-08-12T13:37:43;30.90;24.20
80367;DHT22;70058;42.660;23.366;2023-08-12T13:40:09;30.80;24.40
80367;DHT22;70058;42.660;23.366;2023-08-12T13:42:35;30.80;23.80
80367;DHT22;70058;42.660;23.366;2023-08-12T13:45:01;30.70;24.30
80367;DHT22;70058;42.660;23.366;2023-08-12T13:47:26;31.00;23.70
80367;DHT22;70058;42.660;23.366;2023-08-12T13:49:52;31.10;23.80
80367;DHT22;70058;42.660;23.366;2023-08-12T13:52:17;31.10;23.50
80367;DHT22;70058;42.660;23.366;2023-08-12T13:54:43;31.10;23.30
80367;DHT22;70058;42.660;23.366;2023-08-12T13:57:09;30.90;24.00
80367;DHT22;70058;42.660;23.366;2023-08-12T13:59:34;30.70;23.90
80367;DHT22;70058;42.660;23.366;2023-08-12T14:02:00;30.10;25.10
80367;DHT22;70058;42.660;23.366;2023-08-12T14:04:26;30.00;25.00
80367;DHT22;70058;42.660;23.366;2023-08-12T14:06:51;29.60;25.40
80367;DHT22;70058;42.660;23.366;2023-08-12T14:09:17;29.90;25.10
80367;DHT22;70058;42.660;23.366;2023-08-12T14:11:43;29.10;25.10
80367;DHT22;70058;42.660;23.366;2023-08-12T14:14:09;28.60;25.80
80367;DHT22;70058;42.660;23.366;2023-08-12T14:16:35;28.80;25.90
80367;DHT22;70058;42.660;23.366;2023-08-12T14:19:01;29.20;25.40
80367;DHT22;70058;42.660;23.366;2023-08-12T14:21:26;29.60;25.40
80367;DHT22;70058;42.660;23.366;2023-08-12T14:23:52;29.60;24.90
80367;DHT22;70058;42.660;23.366;2023-08-12T14:26:18;29.70;25.20
80367;DHT22;70058;42.660;23.366;2023-08-12T14:28:43;29.70;24.70
80367;DHT22;70058;42.660;23.366;2023-08-12T14:31:09;29.70;25.10
80367;DHT22;70058;42.660;23.366;2023-08-12T14:33:35;29.60;25.00
80367;DHT22;70058;42.660;23.366;2023-08-12T14:36:03;29.60;25.10
80367;DHT22;70058;42.660;23.366;2023-08-12T14:38:29;29.80;24.90
80367;DHT22;70058;42.660;23.366;2023-08-12T14:40:54;29.80;24.70
80367;DHT22;70058;42.660;23.366;2023-08-12T14:43:20;29.40;25.20
80367;DHT22;70058;42.660;23.366;2023-08-12T14:45:46;29.40;25.00
80367;DHT22;70058;42.660;23.366;2023-08-12T14:48:12;29.60;25.20
80367;DHT22;70058;42.660;23.366;2023-08-12T14:50:38;29.60;25.20
80367;DHT22;70058;42.660;23.366;2023-08-12T14:53:04;29.60;25.10
80367;DHT22;70058;42.660;23.366;2023-08-12T14:55:29;29.00;25.90
80367;DHT22;70058;42.660;23.366;2023-08-12T14:57:55;29.30;25.80
80367;DHT22;70058;42.660;23.366;2023-08-12T15:00:21;29.30;25.80
80367;DHT22;70058;42.660;23.366;2023-08-12T15:02:46;29.00;26.20
80367;DHT22;70058;42.660;23.366;2023-08-12T15:05:12;29.30;26.60
80367;DHT22;70058;42.660;23.366;2023-08-12T15:07:38;29.40;25.90
80367;DHT22;70058;42.660;23.366;2023-08-12T15:10:04;29.50;26.00
80367;DHT22;70058;42.660;23.366;2023-08-12T15:12:30;29.60;25.70
80367;DHT22;70058;42.660;23.366;2023-08-12T15:14:56;29.50;25.70
80367;DHT22;70058;42.660;23.366;2023-08-12T15:17:22;29.10;25.90
80367;DHT22;70058;42.660;23.366;2023-08-12T15:19:47;28.80;26.70